Camellia — VRCP9 — position and weather

sailwx.info

Track history (hours):
 
Tides and Currents Weather Stations Pressure Air Temp Water Temp Dewpoint Dewpoint Depression Visibility Wind Speed Wind Dir Waves Ship Positions

Camellia

Last reported at 2015-Mar-03 10:32 UTC. Time now 2015-Mar-03 11:10 UTC.
Position N 35°46' E 014°45'.

Length 222 m; draft 12.1 m.

Type: Ship (hazmat cat C). MMSI: 477791900.

Date/timePositionNaut miles runAvg speedWind from/ knotsBaromVisibWave heightAir tempDewpointWater temp
2015-Mar-03 10:32N 35°46' E 014°45'1 1.1
2015-Mar-03 09:17N 35°47' E 014°45'85 8.4
2015-Mar-02 23:09N 36°23' E 013°10'711.2
2015-Mar-02 22:32N 36°27' E 013°02'46018.1
2015-Mar-01 21:07N 37°14' E 003°31'1519.1
2015-Mar-01 20:21N 37°11' E 003°13'1619.3
2015-Mar-01 19:31N 37°07' E 002°53'1919.7
2015-Mar-01 18:33N 37°03' E 002°30'2019.6
2015-Mar-01 17:33N 36°58' E 002°06'2319.6
2015-Mar-01 16:24N 36°53' E 001°39'1619.3
2015-Mar-01 15:33N 36°49' E 001°19'2019.9
2015-Mar-01 14:33N 36°44' E 000°55'8719.4
2015-Mar-01 10:06N 36°24' W 000°50'21919.0
2015-Feb-28 22:33N 35°59' W 005°20'288 5.6
2015-Feb-26 19:29N 38°55' W 010°06'77515.8
2015-Feb-24 18:22N 49°53' W 000°36'7 6.2
2015-Feb-24 17:13N 49°49' W 000°27'1 0.6
2015-Feb-24 16:06N 49°49' W 000°27'0 0.8
2015-Feb-24 15:29N 49°49' W 000°28'1 1.5
2015-Feb-24 14:33N 49°49' W 000°30'2 1.0
2015-Feb-24 12:22N 49°47' W 000°31'3 3.5
2015-Feb-24 11:31N 49°48' W 000°35'3 2.5
2015-Feb-24 10:20N 49°49' W 000°31'1 1.4
2015-Feb-24 09:17N 49°49' W 000°29'1 1.5
2015-Feb-24 08:33N 49°50' W 000°31'1 0.6
2015-Feb-24 07:33N 49°50' W 000°32'0 0.2
2015-Feb-24 06:13N 49°49' W 000°32'0 0.3
2015-Feb-24 04:33N 49°49' W 000°31'1 0.4
2015-Feb-24 03:07N 49°49' W 000°32'2 1.3
2015-Feb-24 01:24N 49°48' W 000°29'5 1.7
2015-Feb-23 22:27N 49°48' W 000°37'35 7.2
2015-Feb-23 17:33N 50°20' W 001°00'2121.1
2015-Feb-23 16:33N 50°26' W 000°28'2019.7
2015-Feb-23 15:33N 50°31' E 000°01'1818.3
2015-Feb-23 14:33N 50°36' E 000°29'1717.2
2015-Feb-23 13:33N 50°46' E 000°51'1717.4
2015-Feb-23 12:33N 50°57' E 001°12'2019.5
2015-Feb-23 11:33N 51°09' E 001°37'2121.2
2015-Feb-23 10:33N 51°26' E 001°57'2120.5
2015-Feb-23 09:33N 51°42' E 002°17'3817.7
2015-Feb-23 07:25N 52°03' E 003°08'1518.2
2015-Feb-23 06:33N 52°04' E 003°34'1211.7
2015-Feb-23 05:33N 52°02' E 003°52'6 6.5
2015-Feb-23 04:33N 51°60' E 004°02'9 8.9
2015-Feb-23 03:33N 51°55' E 004°15'7 7.1
2015-Feb-23 02:33N 51°54' E 004°26'1 0.6
2015-Feb-23 01:31N 51°53' E 004°26'0 0.0
2015-Feb-23 00:31N 51°53' E 004°26'0 0.0
2015-Feb-22 23:31N 51°53' E 004°26'0 0.0
2015-Feb-22 22:31N 51°53' E 004°26'0 0.0
2015-Feb-22 21:31N 51°53' E 004°26'0 0.0
2015-Feb-22 20:29N 51°53' E 004°26'0 0.0
2015-Feb-22 19:31N 51°53' E 004°26'0 0.0
2015-Feb-22 18:31N 51°53' E 004°26'0 0.0
2015-Feb-22 17:31N 51°53' E 004°26'0 0.0
2015-Feb-22 16:31N 51°53' E 004°26'0 0.0
2015-Feb-22 15:31N 51°53' E 004°26'0 0.0
2015-Feb-22 14:31N 51°53' E 004°26'2 2.2
2015-Feb-22 13:33N 51°54' E 004°22'9 8.6
2015-Feb-22 12:33N 51°57' E 004°10'1110.9
2015-Feb-22 11:33N 51°59' E 003°52'8 8.1
2015-Feb-22 10:33N 51°58' E 003°39'1212.1
2015-Feb-22 09:33N 51°52' E 003°22'1413.8
2015-Feb-22 08:33N 51°40' E 003°12'1616.5
2015-Feb-22 07:34N 51°25' E 002°59'1918.5
2015-Feb-22 06:33N 51°25' E 003°29'1211.7
2015-Feb-22 05:33N 51°22' E 003°47'1010.1
2015-Feb-22 04:33N 51°23' E 004°03'9 9.2
2015-Feb-22 03:33N 51°20' E 004°16'2 2.4
2015-Feb-22 02:33N 51°17' E 004°16'0 0.0
2015-Feb-22 01:30N 51°17' E 004°16'0 0.0
2015-Feb-22 00:33N 51°17' E 004°16'0 0.0
2015-Feb-21 23:32N 51°17' E 004°16'0 0.0
2015-Feb-21 22:32N 51°17' E 004°16'0 0.0
2015-Feb-21 21:32N 51°17' E 004°16'0 0.0
2015-Feb-21 20:32N 51°17' E 004°16'0 0.0
2015-Feb-21 19:32N 51°17' E 004°16'0 0.0
2015-Feb-21 18:32N 51°17' E 004°16'0 0.2
2015-Feb-21 17:34N 51°18' E 004°16'5 5.1
2015-Feb-21 16:33N 51°22' E 004°13'6 6.4
2015-Feb-21 15:34N 51°23' E 004°03'7 7.4
2015-Feb-21 14:34N 51°21' E 003°51'1110.7
2015-Feb-21 13:33N 51°26' E 003°36'1413.7
2015-Feb-21 12:33N 51°25' E 003°14'9 8.9
2015-Feb-21 11:33N 51°31' E 003°04'1414.4
2015-Feb-21 10:33N 51°44' E 003°14'  
Track history (hours):
 
Tides and Currents Weather Stations Pressure Air Temp Water Temp Dewpoint Dewpoint Depression Visibility Wind Speed Wind Dir Waves Ship Positions

Camellia

Last reported at 2015-Mar-03 10:32 UTC. Time now 2015-Mar-03 11:10 UTC.
Position N 35°46' E 014°45'.

Length 222 m; draft 12.1 m.

Type: Ship (hazmat cat C). MMSI: 477791900.

Date/timePositionNaut miles runAvg speedWind from/ knotsBaromVisibWave heightAir tempDewpointWater temp
2015-Mar-03 10:32N 35°46' E 014°45'1 1.1
2015-Mar-03 09:17N 35°47' E 014°45'85 8.4
2015-Mar-02 23:09N 36°23' E 013°10'711.2
2015-Mar-02 22:32N 36°27' E 013°02'46018.1
2015-Mar-01 21:07N 37°14' E 003°31'1519.1
2015-Mar-01 20:21N 37°11' E 003°13'1619.3
2015-Mar-01 19:31N 37°07' E 002°53'1919.7
2015-Mar-01 18:33N 37°03' E 002°30'2019.6
2015-Mar-01 17:33N 36°58' E 002°06'2319.6
2015-Mar-01 16:24N 36°53' E 001°39'1619.3
2015-Mar-01 15:33N 36°49' E 001°19'2019.9
2015-Mar-01 14:33N 36°44' E 000°55'8719.4
2015-Mar-01 10:06N 36°24' W 000°50'21919.0
2015-Feb-28 22:33N 35°59' W 005°20'288 5.6
2015-Feb-26 19:29N 38°55' W 010°06'77515.8
2015-Feb-24 18:22N 49°53' W 000°36'7 6.2
2015-Feb-24 17:13N 49°49' W 000°27'1 0.6
2015-Feb-24 16:06N 49°49' W 000°27'0 0.8
2015-Feb-24 15:29N 49°49' W 000°28'1 1.5
2015-Feb-24 14:33N 49°49' W 000°30'2 1.0
2015-Feb-24 12:22N 49°47' W 000°31'3 3.5
2015-Feb-24 11:31N 49°48' W 000°35'3 2.5
2015-Feb-24 10:20N 49°49' W 000°31'1 1.4
2015-Feb-24 09:17N 49°49' W 000°29'1 1.5
2015-Feb-24 08:33N 49°50' W 000°31'1 0.6
2015-Feb-24 07:33N 49°50' W 000°32'0 0.2
2015-Feb-24 06:13N 49°49' W 000°32'0 0.3
2015-Feb-24 04:33N 49°49' W 000°31'1 0.4
2015-Feb-24 03:07N 49°49' W 000°32'2 1.3
2015-Feb-24 01:24N 49°48' W 000°29'5 1.7
2015-Feb-23 22:27N 49°48' W 000°37'35 7.2
2015-Feb-23 17:33N 50°20' W 001°00'2121.1
2015-Feb-23 16:33N 50°26' W 000°28'2019.7
2015-Feb-23 15:33N 50°31' E 000°01'1818.3
2015-Feb-23 14:33N 50°36' E 000°29'1717.2
2015-Feb-23 13:33N 50°46' E 000°51'1717.4
2015-Feb-23 12:33N 50°57' E 001°12'2019.5
2015-Feb-23 11:33N 51°09' E 001°37'2121.2
2015-Feb-23 10:33N 51°26' E 001°57'2120.5
2015-Feb-23 09:33N 51°42' E 002°17'3817.7
2015-Feb-23 07:25N 52°03' E 003°08'1518.2
2015-Feb-23 06:33N 52°04' E 003°34'1211.7
2015-Feb-23 05:33N 52°02' E 003°52'6 6.5
2015-Feb-23 04:33N 51°60' E 004°02'9 8.9
2015-Feb-23 03:33N 51°55' E 004°15'7 7.1
2015-Feb-23 02:33N 51°54' E 004°26'1 0.6
2015-Feb-23 01:31N 51°53' E 004°26'0 0.0
2015-Feb-23 00:31N 51°53' E 004°26'0 0.0
2015-Feb-22 23:31N 51°53' E 004°26'0 0.0
2015-Feb-22 22:31N 51°53' E 004°26'0 0.0
2015-Feb-22 21:31N 51°53' E 004°26'0 0.0
2015-Feb-22 20:29N 51°53' E 004°26'0 0.0
2015-Feb-22 19:31N 51°53' E 004°26'0 0.0
2015-Feb-22 18:31N 51°53' E 004°26'0 0.0
2015-Feb-22 17:31N 51°53' E 004°26'0 0.0
2015-Feb-22 16:31N 51°53' E 004°26'0 0.0
2015-Feb-22 15:31N 51°53' E 004°26'0 0.0
2015-Feb-22 14:31N 51°53' E 004°26'2 2.2
2015-Feb-22 13:33N 51°54' E 004°22'9 8.6
2015-Feb-22 12:33N 51°57' E 004°10'1110.9
2015-Feb-22 11:33N 51°59' E 003°52'8 8.1
2015-Feb-22 10:33N 51°58' E 003°39'1212.1
2015-Feb-22 09:33N 51°52' E 003°22'1413.8
2015-Feb-22 08:33N 51°40' E 003°12'1616.5
2015-Feb-22 07:34N 51°25' E 002°59'1918.5
2015-Feb-22 06:33N 51°25' E 003°29'1211.7
2015-Feb-22 05:33N 51°22' E 003°47'1010.1
2015-Feb-22 04:33N 51°23' E 004°03'9 9.2
2015-Feb-22 03:33N 51°20' E 004°16'2 2.4
2015-Feb-22 02:33N 51°17' E 004°16'0 0.0
2015-Feb-22 01:30N 51°17' E 004°16'0 0.0
2015-Feb-22 00:33N 51°17' E 004°16'0 0.0
2015-Feb-21 23:32N 51°17' E 004°16'0 0.0
2015-Feb-21 22:32N 51°17' E 004°16'0 0.0
2015-Feb-21 21:32N 51°17' E 004°16'0 0.0
2015-Feb-21 20:32N 51°17' E 004°16'0 0.0
2015-Feb-21 19:32N 51°17' E 004°16'0 0.0
2015-Feb-21 18:32N 51°17' E 004°16'0 0.2
2015-Feb-21 17:34N 51°18' E 004°16'5 5.1
2015-Feb-21 16:33N 51°22' E 004°13'6 6.4
2015-Feb-21 15:34N 51°23' E 004°03'7 7.4
2015-Feb-21 14:34N 51°21' E 003°51'1110.7
2015-Feb-21 13:33N 51°26' E 003°36'1413.7
2015-Feb-21 12:33N 51°25' E 003°14'9 8.9
2015-Feb-21 11:33N 51°31' E 003°04'1414.4
2015-Feb-21 10:33N 51°44' E 003°14'  

Dump ship's entire track history